Aérodrome :
LOGIN :

S'inscrire | Disclaimer

   EN    FR    IT 

 










Légende :    VFR   VFR Marginal   IFR   IFR Intensif   IFR Très Intensif
Visi : 
Plafond : 
>= 8 km
>= 3000ft
5 à 8 km
1000 à 3000 ft
1500m à 5 km
500 à 1000 ft
800 à 1500m
200 à 500 ft
< 800m
< 200 ft
Symboles :   Orages  Brouillard  Fortes neiges  Fortes précipitations  Vent > 20 kt
SIGMETs :   Divers  Orages  Givrage  Turbulence  Onde Orograph.  Cendres Volcan.







- Altitude de l'aérodrome : 74 ft
- Code IATA : EIN


EHEH - Eindhoven

DERNIER METAR :
  • 220625Z AUTO 14005KT 110V230 9999 BKN270 15/11 Q1013 BLU 16008KT CAVOK

METARs EXPIRÉS :
  • 220555Z AUTO 15004KT 110V190 9999 OVC270 14/10 Q1013 BLU 16008KT CAVOK
  • 220525Z AUTO 13004KT 090V200 9999 OVC260 14/09 Q1013 BLU 14005KT CAVOK
  • 220455Z AUTO 12003KT 030V170 9999 OVC330 13/09 Q1013 BLU 09005KT CAVOK
  • 220425Z AUTO VRB02KT 9999 OVC320 13/09 Q1013 BLU 09005KT CAVOK
  • 220355Z AUTO 08004KT 030V100 9999 OVC340 14/09 Q1013 BLU

TAF TAF EHEH
Valide du 22 à 06h jusqu'au 23 à 12h UTC


220516Z 2206/2312 12004KT CAVOK
BECMG 2206/2208 18008KT
PROB40
TEMPO 2211/2219 22012G25KT FEW050CB SCT070
PROB30
TEMPO 2215/2218 24015G35KT 3500 TSRAGR SCT040CB BKN050
BECMG 2217/2219 26005KT
BECMG 2300/2302 27012KT
PROB30
TEMPO 2302/2305 FEW040CB
Pas de NOTAMs connus pour ce terrain.



MET'MAP, la Météo Aéronautique d'un coup d'oeil ! - Copyright ORBIFLY Décembre 2007 - Disclaimer

ORBIFLY MET'MAP TEAM :

Programmation & Développement : Alexandra Zaïnal
Conception & Développement : Baudouin d'Aumeries
Co-Programmation & Développement : Marc-Olivier Méhu
Soutien technique & logistique : Manuel Goepfert

Contact : metmap@orbifly.com




SOURCES & CREDITS :

   NOAA